Time;durP1;ratioP1;P1;durP2;ratioP2;P2;SDS_P1;SDS_P2;PMS_P1;PMS_P2;Temp;Humidity;BMP_temperature;BMP_pressure;BME280_temperature;BME280_humidity;BME280_pressure;Samples;Min_cycle;Max_cycle;Signal;HPM_P1;HPM_P2
2022/10/30 00:01:47;;;;;;;46.65;37.42;;;22.90;56.10;;;;;;4769048;55;21537;-45
2022/10/30 00:06:47;;;;;;;47.10;37.03;;;22.90;56.00;;;;;;4745672;59;20997;-37
2022/10/30 00:11:48;;;;;;;49.90;39.05;;;22.80;56.00;;;;;;4912199;55;21062;-43
2022/10/30 00:16:49;;;;;;;49.35;38.90;;;22.90;56.00;;;;;;5230912;55;21053;-38
2022/10/30 00:21:50;;;;;;;47.53;37.92;;;22.90;56.00;;;;;;4745633;56;21030;-41
2022/10/30 00:26:50;;;;;;;48.15;37.38;;;22.90;56.10;;;;;;4745559;59;21058;-39
2022/10/30 00:31:52;;;;;;;46.92;37.15;;;22.80;56.00;;;;;;4822151;55;21013;-36
2022/10/30 00:36:53;;;;;;;45.80;36.80;;;22.80;55.90;;;;;;4888964;55;20998;-45
2022/10/30 00:41:53;;;;;;;44.88;36.38;;;22.80;56.00;;;;;;4897132;55;21002;-36
2022/10/30 00:46:54;;;;;;;48.28;36.92;;;22.80;55.90;;;;;;5209875;55;21065;-31
2022/10/30 00:51:55;;;;;;;44.63;36.58;;;22.80;55.90;;;;;;4986724;55;21053;-40
2022/10/30 00:56:56;;;;;;;46.08;35.42;;;22.90;56.00;;;;;;5073003;55;21014;-41
2022/10/30 01:01:57;;;;;;;46.15;35.33;;;22.80;55.90;;;;;;5231054;55;20997;-42
2022/10/30 01:07:04;;;;;;;44.85;35.45;;;22.80;55.90;;;;;;5155394;55;21097;-40
2022/10/30 01:12:06;;;;;;;45.30;34.65;;;22.80;55.90;;;;;;4834740;55;21010;-40
2022/10/30 01:22:42;;;;;;;40.58;33.40;;;22.80;55.80;;;;;;4995458;55;20982;-31
2022/10/30 01:28:09;;;;;;;45.20;34.97;;;22.80;55.80;;;;;;5180272;55;21073;-42
2022/10/30 01:33:46;;;;;;;43.67;34.10;;;22.80;55.80;;;;;;4942633;55;20998;-32
2022/10/30 01:38:53;;;;;;;41.88;33.45;;;22.80;55.70;;;;;;4832769;55;21082;-39
2022/10/30 01:43:57;;;;;;;39.57;32.87;;;22.80;55.80;;;;;;4745287;59;21010;-37
2022/10/30 01:50:44;;;;;;;43.33;34.30;;;22.80;55.80;;;;;;4859905;55;21053;-37
2022/10/30 01:56:14;;;;;;;42.42;33.92;;;22.80;55.70;;;;;;4858247;55;21053;-39
2022/10/30 02:01:16;;;;;;;40.22;31.58;;;22.80;55.70;;;;;;4917229;55;21464;-41
2022/10/30 02:06:17;;;;;;;40.45;32.00;;;22.80;55.70;;;;;;4849758;55;21065;-42
2022/10/30 02:11:18;;;;;;;40.12;31.77;;;22.80;55.80;;;;;;4745560;59;20997;-30
2022/10/30 02:16:19;;;;;;;39.83;31.80;;;22.80;55.70;;;;;;4879437;55;21002;-38
2022/10/30 02:21:19;;;;;;;36.85;30.50;;;22.80;55.70;;;;;;4780461;55;21006;-36
2022/10/30 02:26:20;;;;;;;40.90;30.73;;;22.80;55.60;;;;;;4745586;59;21013;-43
2022/10/30 02:31:21;;;;;;;38.17;30.67;;;22.80;55.70;;;;;;4745535;59;21025;-34
2022/10/30 02:36:22;;;;;;;37.45;30.40;;;22.80;55.80;;;;;;4987071;55;21057;-33
2022/10/30 02:41:23;;;;;;;37.67;30.85;;;22.70;55.60;;;;;;4745309;59;21006;-46
2022/10/30 02:46:24;;;;;;;36.05;30.80;;;22.80;55.60;;;;;;4745485;59;21552;-45
2022/10/30 02:51:25;;;;;;;36.47;28.70;;;22.80;55.60;;;;;;4745290;59;21035;-44
2022/10/30 02:56:26;;;;;;;39.08;29.92;;;22.70;55.50;;;;;;4851236;55;21021;-48
2022/10/30 03:01:27;;;;;;;34.10;28.42;;;22.70;55.60;;;;;;4744946;59;21564;-38
2022/10/30 03:06:28;;;;;;;37.45;30.50;;;22.80;55.60;;;;;;4809018;55;21014;-36
2022/10/30 03:11:29;;;;;;;35.92;28.80;;;22.60;55.50;;;;;;4902194;55;21006;-47
2022/10/30 03:16:30;;;;;;;36.83;29.08;;;23.00;55.50;;;;;;4944403;55;21077;-31
2022/10/30 03:21:31;;;;;;;35.33;28.67;;;22.70;55.50;;;;;;4763544;55;21524;-37
2022/10/30 03:26:32;;;;;;;33.78;27.52;;;22.70;55.40;;;;;;4745485;59;21018;-46
2022/10/30 03:31:33;;;;;;;35.20;28.12;;;22.80;55.50;;;;;;4745483;59;20986;-34
2022/10/30 03:36:34;;;;;;;33.55;27.45;;;22.70;55.40;;;;;;4801244;55;21041;-41
2022/10/30 03:41:35;;;;;;;34.30;26.67;;;22.70;55.40;;;;;;4745156;55;21018;-40
2022/10/30 03:46:36;;;;;;;36.00;27.73;;;22.70;55.40;;;;;;4745078;59;21074;-39
2022/10/30 03:51:37;;;;;;;32.88;27.20;;;22.70;55.30;;;;;;4745240;59;21122;-41
2022/10/30 03:56:38;;;;;;;34.17;27.30;;;22.70;55.20;;;;;;4782430;55;21066;-42
2022/10/30 04:01:39;;;;;;;31.25;25.92;;;22.70;55.30;;;;;;4745206;55;21488;-43
2022/10/30 04:06:40;;;;;;;32.42;25.83;;;22.80;55.30;;;;;;4745132;55;21560;-41
2022/10/30 04:11:40;;;;;;;32.80;25.70;;;22.70;55.30;;;;;;4744116;59;20978;-34
2022/10/30 04:16:41;;;;;;;31.00;25.45;;;22.70;55.40;;;;;;4808686;55;21010;-38
2022/10/30 04:21:42;;;;;;;30.77;25.33;;;22.70;55.30;;;;;;5083250;55;21037;-39
2022/10/30 04:26:43;;;;;;;32.15;25.80;;;22.70;55.20;;;;;;5079947;55;21001;-38
2022/10/30 04:31:44;;;;;;;33.67;26.52;;;22.70;55.20;;;;;;5099482;55;21504;-47
2022/10/30 04:36:45;;;;;;;29.17;24.60;;;22.70;55.30;;;;;;5118250;55;21055;-38
2022/10/30 04:41:46;;;;;;;30.85;25.48;;;22.70;55.20;;;;;;4939669;55;21094;-42
2022/10/30 04:46:46;;;;;;;32.50;25.12;;;22.70;55.20;;;;;;5049726;55;20997;-40
2022/10/30 04:51:47;;;;;;;31.75;25.67;;;22.70;55.20;;;;;;4845610;55;21088;-36
2022/10/30 04:56:48;;;;;;;28.73;24.00;;;22.70;55.20;;;;;;4799610;55;21022;-48
2022/10/30 05:01:49;;;;;;;30.20;25.37;;;22.70;55.10;;;;;;4884690;55;21551;-46
2022/10/30 05:06:50;;;;;;;32.67;24.75;;;22.70;55.10;;;;;;4925263;55;21073;-42
2022/10/30 05:11:50;;;;;;;31.08;25.10;;;22.70;55.20;;;;;;5185170;55;20998;-44
2022/10/30 05:16:51;;;;;;;29.87;24.48;;;22.70;55.20;;;;;;4788705;55;21077;-40
2022/10/30 05:21:52;;;;;;;28.65;23.55;;;22.70;55.00;;;;;;4813841;55;21081;-46
2022/10/30 05:26:53;;;;;;;27.55;23.58;;;22.70;55.10;;;;;;4925044;55;21017;-43
2022/10/30 05:31:54;;;;;;;29.50;23.23;;;22.70;55.00;;;;;;4912298;55;21061;-43
2022/10/30 05:36:55;;;;;;;28.30;22.80;;;22.70;55.00;;;;;;4933525;55;21555;-40
2022/10/30 05:41:55;;;;;;;28.45;23.40;;;22.70;55.00;;;;;;4745003;56;21476;-37
2022/10/30 05:46:56;;;;;;;29.77;22.87;;;22.70;55.10;;;;;;4898906;55;21121;-36
2022/10/30 05:51:57;;;;;;;28.00;22.33;;;22.70;55.00;;;;;;4745642;55;21005;-42
2022/10/30 05:56:58;;;;;;;27.77;23.95;;;22.70;55.00;;;;;;5107120;55;21126;-31
2022/10/30 06:01:59;;;;;;;30.75;24.12;;;22.70;55.00;;;;;;4745185;55;21007;-38
2022/10/30 06:06:59;;;;;;;29.87;24.20;;;22.70;55.10;;;;;;4745237;59;21077;-42
2022/10/30 06:12:00;;;;;;;29.83;23.65;;;22.70;55.00;;;;;;4745405;59;21526;-30
2022/10/30 06:17:01;;;;;;;27.02;22.67;;;22.70;55.00;;;;;;4975540;55;21085;-31
2022/10/30 06:22:02;;;;;;;25.83;22.35;;;22.70;55.00;;;;;;4745070;59;21082;-37
2022/10/30 06:27:03;;;;;;;28.58;23.40;;;22.70;54.90;;;;;;5230410;55;21018;-43
2022/10/30 06:32:04;;;;;;;28.95;23.73;;;22.70;54.90;;;;;;5226956;55;20998;-42
2022/10/30 06:37:05;;;;;;;27.77;23.02;;;22.70;54.90;;;;;;4779102;55;21107;-43
2022/10/30 06:42:06;;;;;;;28.85;23.05;;;22.70;54.90;;;;;;4783911;55;21090;-34
2022/10/30 06:47:07;;;;;;;27.40;22.95;;;22.60;54.90;;;;;;4792270;55;21006;-38
2022/10/30 06:52:08;;;;;;;27.90;23.30;;;22.70;55.00;;;;;;4863663;55;21058;-31
2022/10/30 06:57:09;;;;;;;28.17;22.85;;;22.60;54.90;;;;;;4905846;55;21074;-43
2022/10/30 07:02:10;;;;;;;28.67;24.00;;;22.60;54.80;;;;;;4858581;55;21021;-41
2022/10/30 07:07:12;;;;;;;28.40;22.70;;;22.70;55.50;;;;;;5020874;55;21192;-37
2022/10/30 07:12:13;;;;;;;28.20;22.73;;;22.60;54.90;;;;;;4807141;55;21049;-35
2022/10/30 07:17:14;;;;;;;28.17;22.65;;;22.60;54.80;;;;;;4787112;55;21050;-34
2022/10/30 07:22:15;;;;;;;28.20;22.65;;;22.60;54.60;;;;;;4844658;55;21101;-43
2022/10/30 07:27:15;;;;;;;27.23;22.73;;;22.70;54.80;;;;;;4800283;55;21082;-39
2022/10/30 07:32:16;;;;;;;29.23;23.87;;;22.70;54.80;;;;;;4883708;55;21061;-38
2022/10/30 07:37:17;;;;;;;27.40;22.87;;;22.60;54.80;;;;;;4745045;59;21002;-42
2022/10/30 07:42:18;;;;;;;27.20;21.67;;;22.60;55.00;;;;;;4830935;55;21054;-43
2022/10/30 07:47:19;;;;;;;27.17;22.33;;;22.60;54.80;;;;;;5024384;55;21009;-36
2022/10/30 07:52:19;;;;;;;29.55;23.65;;;22.70;54.80;;;;;;4763870;55;21129;-31
2022/10/30 07:57:20;;;;;;;28.95;23.83;;;22.70;54.80;;;;;;4778552;55;21014;-31
2022/10/30 08:02:21;;;;;;;28.60;23.98;;;22.60;54.80;;;;;;5044731;55;21173;-45
2022/10/30 08:07:22;;;;;;;24.92;21.40;;;22.60;54.80;;;;;;4954464;55;21014;-40
2022/10/30 08:12:23;;;;;;;27.92;22.80;;;22.60;54.60;;;;;;4899000;55;21005;-36
2022/10/30 08:17:24;;;;;;;29.83;23.70;;;22.70;54.80;;;;;;4839877;55;20998;-46
2022/10/30 08:22:26;;;;;;;29.83;23.45;;;22.60;54.70;;;;;;4751919;55;21014;-35
2022/10/30 08:27:26;;;;;;;27.75;23.48;;;22.70;54.70;;;;;;4941716;55;20994;-43
2022/10/30 08:32:27;;;;;;;27.35;22.33;;;22.70;54.70;;;;;;4929372;55;21009;-39
2022/10/30 08:37:28;;;;;;;26.95;22.45;;;22.70;54.70;;;;;;4854097;55;21062;-46
2022/10/30 08:42:29;;;;;;;29.30;23.33;;;22.70;54.80;;;;;;4935908;55;21096;-42
2022/10/30 08:47:29;;;;;;;25.62;21.60;;;22.70;54.90;;;;;;4890040;55;21006;-45
2022/10/30 08:52:30;;;;;;;26.65;22.15;;;22.70;54.80;;;;;;4745054;59;20998;-46
2022/10/30 08:57:36;;;;;;;27.85;22.23;;;22.70;54.80;;;;;;4839286;55;21093;-41
2022/10/30 09:02:39;;;;;;;27.13;22.20;;;22.70;54.80;;;;;;4916939;55;20986;-41
2022/10/30 09:07:40;;;;;;;28.27;23.25;;;22.70;54.80;;;;;;4745154;59;21120;-50
2022/10/30 09:12:41;;;;;;;30.02;24.00;;;22.70;54.90;;;;;;4772013;55;21555;-41
2022/10/30 09:17:42;;;;;;;29.10;24.35;;;22.70;55.00;;;;;;5149418;55;21057;-42
2022/10/30 09:22:42;;;;;;;27.92;23.87;;;22.70;55.00;;;;;;4769398;55;21464;-44
2022/10/30 09:27:43;;;;;;;30.37;24.87;;;22.70;55.00;;;;;;4855157;55;21018;-34
2022/10/30 09:32:44;;;;;;;30.08;24.33;;;22.70;55.00;;;;;;4984068;55;21044;-44
2022/10/30 09:37:45;;;;;;;31.02;24.92;;;22.70;55.00;;;;;;4745583;59;21010;-33
2022/10/30 09:42:47;;;;;;;29.77;25.42;;;22.70;55.10;;;;;;4790557;55;21033;-43
2022/10/30 09:56:15;;;;;;;31.23;25.10;;;22.70;55.00;;;;;;4791824;55;21014;-39
2022/10/30 10:01:27;;;;;;;31.98;25.83;;;22.70;55.00;;;;;;4763963;55;21002;-39
2022/10/30 10:06:29;;;;;;;31.75;26.23;;;22.70;55.10;;;;;;4939767;55;20990;-44
2022/10/30 10:11:40;;;;;;;32.90;26.20;;;22.70;55.10;;;;;;4745680;59;20998;-45
2022/10/30 10:16:44;;;;;;;31.52;26.05;;;22.70;55.10;;;;;;4745114;59;20990;-44
2022/10/30 10:22:02;;;;;;;30.27;25.55;;;22.70;55.10;;;;;;4867305;55;21029;-47
2022/10/30 10:30:15;;;;;;;30.17;25.70;;;22.70;55.10;;;;;;4790382;55;21014;-41
2022/10/30 10:42:23;;;;;;;29.70;24.67;;;22.70;55.10;;;;;;4848655;55;21026;-44
2022/10/30 10:49:45;;;;;;;31.23;24.98;;;22.70;55.10;;;;;;4982719;55;21641;-43
2022/10/30 10:55:00;;;;;;;29.42;25.65;;;22.70;55.10;;;;;;4845822;55;21038;-48
2022/10/30 11:00:07;;;;;;;31.30;25.30;;;22.70;55.10;;;;;;4809729;55;20986;-41
2022/10/30 11:05:57;;;;;;;28.67;24.83;;;22.70;55.10;;;;;;4807489;55;21069;-40
2022/10/30 11:11:01;;;;;;;32.00;26.48;;;22.70;55.10;;;;;;4753352;55;21005;-47
2022/10/30 11:18:15;;;;;;;30.45;25.77;;;22.70;55.20;;;;;;4970082;55;21081;-42
2022/10/30 11:26:47;;;;;;;30.80;25.77;;;22.70;55.20;;;;;;4897115;55;21581;-45
2022/10/30 11:32:02;;;;;;;30.88;25.33;;;22.80;55.20;;;;;;4744892;59;21575;-37
2022/10/30 11:37:04;;;;;;;31.27;25.27;;;22.80;55.30;;;;;;4754057;55;21057;-44
2022/10/30 11:42:18;;;;;;;28.17;23.15;;;22.80;55.30;;;;;;4781942;55;21090;-46
2022/10/30 11:47:23;;;;;;;33.53;26.40;;;22.80;55.30;;;;;;4878668;55;21041;-44
2022/10/30 11:52:25;;;;;;;28.92;25.20;;;22.70;55.30;;;;;;4745371;59;21069;-47
2022/10/30 11:57:49;;;;;;;30.30;25.45;;;22.70;55.30;;;;;;4745714;59;21010;-43
2022/10/30 12:02:52;;;;;;;30.80;25.50;;;22.80;55.30;;;;;;4745531;59;20994;-43
2022/10/30 12:08:09;;;;;;;32.15;25.70;;;22.70;55.30;;;;;;4828861;55;20982;-43
2022/10/30 12:13:15;;;;;;;32.90;26.35;;;22.70;55.30;;;;;;4745347;59;21527;-45
2022/10/30 12:18:24;;;;;;;30.85;25.95;;;22.80;55.30;;;;;;4919565;55;20997;-38
2022/10/30 12:23:27;;;;;;;30.92;25.08;;;22.70;55.30;;;;;;4802741;55;21159;-47
2022/10/30 12:28:30;;;;;;;30.60;24.48;;;22.80;55.30;;;;;;4879983;55;21015;-45
2022/10/30 12:33:55;;;;;;;31.58;25.15;;;22.70;55.30;;;;;;4847406;55;21006;-47
2022/10/30 12:39:29;;;;;;;32.55;26.85;;;22.70;55.30;;;;;;4938084;55;21013;-49
2022/10/30 12:44:44;;;;;;;32.30;25.50;;;22.70;55.30;;;;;;5006501;55;21563;-41
2022/10/30 12:49:57;;;;;;;31.58;25.27;;;22.70;55.30;;;;;;4835981;55;21013;-30
2022/10/30 12:55:30;;;;;;;29.12;24.77;;;22.80;55.40;;;;;;5227505;55;20986;-42
2022/10/30 13:00:40;;;;;;;32.67;26.58;;;22.80;55.30;;;;;;4864894;55;21030;-45
2022/10/30 13:05:47;;;;;;;32.25;26.10;;;22.80;55.40;;;;;;5016780;55;21536;-41
2022/10/30 13:11:03;;;;;;;33.05;26.00;;;22.80;55.40;;;;;;4745460;59;21552;-42
2022/10/30 13:16:17;;;;;;;30.73;26.65;;;22.80;55.30;;;;;;4763562;55;21456;-47
2022/10/30 13:21:32;;;;;;;31.90;25.98;;;22.80;55.30;;;;;;4782553;55;21097;-48
2022/10/30 13:27:15;;;;;;;34.53;26.35;;;22.80;55.30;;;;;;4976783;55;20993;-42
2022/10/30 13:33:29;;;;;;;31.20;26.23;;;22.80;55.30;;;;;;4905648;55;21034;-42
2022/10/30 13:42:15;;;;;;;30.35;25.42;;;22.80;55.30;;;;;;4827383;55;20998;-47
2022/10/30 13:50:17;;;;;;;32.83;25.92;;;22.80;55.40;;;;;;4963997;55;21053;-39
2022/10/30 13:55:28;;;;;;;30.98;25.40;;;22.80;55.30;;;;;;4847544;55;21019;-37
2022/10/30 14:02:12;;;;;;;33.08;26.05;;;22.90;55.40;;;;;;4760886;55;20994;-39
2022/10/30 14:07:33;;;;;;;30.62;26.15;;;22.80;55.40;;;;;;4745187;55;21049;-42
2022/10/30 14:13:04;;;;;;;30.95;26.52;;;22.90;55.40;;;;;;4799633;55;21141;-46
2022/10/30 14:19:26;;;;;;;33.25;26.40;;;22.80;55.40;;;;;;4852618;55;21010;-44
2022/10/30 14:24:32;;;;;;;30.80;25.90;;;22.80;55.50;;;;;;4786075;55;21587;-43
2022/10/30 14:29:43;;;;;;;31.40;26.05;;;22.80;55.40;;;;;;4844989;55;21114;-43
2022/10/30 14:36:38;;;;;;;34.67;28.40;;;22.80;55.40;;;;;;4911477;55;21077;-46
2022/10/30 14:42:22;;;;;;;35.05;27.35;;;22.80;55.50;;;;;;4898576;55;21061;-47
2022/10/30 14:48:25;;;;;;;33.53;28.12;;;22.80;55.50;;;;;;4957707;55;20986;-48
2022/10/30 14:56:21;;;;;;;34.85;29.05;;;22.80;55.40;;;;;;4768884;55;21477;-38
2022/10/30 15:05:04;;;;;;;33.28;28.25;;;22.80;55.40;;;;;;4943840;55;21527;-44
2022/10/30 15:10:30;;;;;;;35.42;29.67;;;22.80;55.50;;;;;;4820466;55;21536;-44
2022/10/30 15:15:31;;;;;;;33.80;28.80;;;22.80;55.40;;;;;;4745544;55;21018;-39
2022/10/30 15:20:33;;;;;;;38.38;30.33;;;22.80;55.50;;;;;;4876172;55;21106;-44
2022/10/30 15:25:49;;;;;;;36.58;30.27;;;22.80;55.50;;;;;;4744440;59;21078;-46
2022/10/30 15:31:27;;;;;;;34.80;29.60;;;22.80;55.40;;;;;;4745047;55;21149;-43
2022/10/30 15:36:34;;;;;;;38.17;30.00;;;22.80;55.50;;;;;;4745431;55;21025;-43
2022/10/30 15:41:44;;;;;;;38.55;31.40;;;22.80;55.50;;;;;;4745203;59;20998;-38
2022/10/30 15:46:51;;;;;;;36.95;30.58;;;22.80;55.50;;;;;;4781086;55;21022;-41
2022/10/30 15:51:51;;;;;;;;;;;22.90;55.60;;;;;;4762544;55;21065;-47
2022/10/30 15:56:56;;;;;;;40.12;32.50;;;22.80;55.50;;;;;;5230887;55;20061;-33
2022/10/30 16:01:58;;;;;;;42.03;33.13;;;22.80;55.50;;;;;;5042653;55;21505;-48
2022/10/30 16:07:00;;;;;;;40.42;31.92;;;22.80;55.50;;;;;;4826154;55;21467;-46
2022/10/30 16:12:01;;;;;;;41.72;33.78;;;22.80;55.60;;;;;;4790629;55;21120;-35
2022/10/30 16:17:02;;;;;;;42.08;34.78;;;22.80;55.50;;;;;;4776123;55;21010;-39
2022/10/30 16:22:03;;;;;;;45.00;35.05;;;22.80;55.60;;;;;;4854956;55;21038;-43
2022/10/30 16:27:19;;;;;;;42.65;34.78;;;22.80;55.60;;;;;;4902885;55;21053;-43
2022/10/30 16:32:23;;;;;;;43.92;35.78;;;22.80;55.60;;;;;;4828338;55;21045;-36
2022/10/30 16:37:36;;;;;;;44.13;34.65;;;22.80;55.60;;;;;;5039305;55;21125;-51
2022/10/30 16:42:37;;;;;;;45.25;35.58;;;22.80;55.60;;;;;;5030459;55;20998;-41
2022/10/30 16:47:41;;;;;;;45.60;35.05;;;22.80;55.60;;;;;;4983343;55;21009;-37
2022/10/30 16:52:43;;;;;;;44.00;36.35;;;22.80;55.60;;;;;;4745349;59;21058;-41
2022/10/30 16:57:45;;;;;;;44.33;35.53;;;22.80;55.70;;;;;;4745687;55;21125;-45
2022/10/30 17:02:48;;;;;;;48.55;36.78;;;22.80;55.60;;;;;;4816969;55;21069;-43
2022/10/30 17:08:04;;;;;;;48.70;37.33;;;22.80;55.70;;;;;;4826736;55;21009;-46
2022/10/30 17:14:57;;;;;;;50.35;37.70;;;22.80;55.70;;;;;;4844493;55;21093;-44
2022/10/30 17:20:34;;;;;;;46.20;36.45;;;22.80;55.60;;;;;;4832043;55;21029;-41
2022/10/30 17:25:37;;;;;;;52.88;38.67;;;22.80;55.70;;;;;;4890795;55;21018;-42
2022/10/30 17:30:42;;;;;;;50.70;38.72;;;22.80;55.70;;;;;;4799731;55;21073;-33
2022/10/30 17:35:42;;;;;;;48.80;38.13;;;22.80;55.70;;;;;;4745696;59;20998;-40
2022/10/30 17:40:43;;;;;;;49.15;39.13;;;22.80;55.70;;;;;;4757830;55;21590;-40
2022/10/30 17:45:44;;;;;;;49.65;39.47;;;22.80;55.40;;;;;;4798261;55;21005;-40
2022/10/30 17:50:45;;;;;;;53.13;39.72;;;22.80;55.70;;;;;;4838255;55;21455;-40
2022/10/30 17:56:32;;;;;;;51.75;39.55;;;22.80;55.70;;;;;;4745817;59;21006;-43
2022/10/30 18:01:32;;;;;;;51.97;39.60;;;22.80;55.80;;;;;;4839631;55;20998;-43
2022/10/30 18:06:33;;;;;;;52.33;40.35;;;22.80;55.80;;;;;;4744745;59;21102;-46
2022/10/30 18:11:35;;;;;;;50.58;40.08;;;22.80;55.80;;;;;;4755958;55;21069;-46
2022/10/30 18:16:36;;;;;;;54.17;41.22;;;22.80;55.80;;;;;;4745257;59;21010;-48
2022/10/30 18:21:37;;;;;;;51.08;38.92;;;22.80;55.80;;;;;;4832336;55;21034;-42
2022/10/30 18:26:38;;;;;;;53.75;41.72;;;22.80;55.80;;;;;;4745415;59;21516;-41
2022/10/30 18:31:40;;;;;;;54.05;43.22;;;22.80;55.90;;;;;;4873329;55;21078;-46
2022/10/30 18:36:40;;;;;;;58.87;42.67;;;22.80;55.80;;;;;;4781915;55;20990;-41
2022/10/30 18:41:45;;;;;;;55.58;43.53;;;22.80;55.50;;;;;;4971189;55;21030;-40
2022/10/30 18:46:46;;;;;;;58.10;44.13;;;22.80;55.80;;;;;;4745152;59;21476;-45
2022/10/30 18:51:47;;;;;;;58.30;44.88;;;22.80;55.80;;;;;;4745375;59;20994;-38
2022/10/30 18:56:48;;;;;;;60.80;46.03;;;22.80;55.80;;;;;;5105684;55;21074;-47
2022/10/30 19:01:49;;;;;;;60.35;45.00;;;22.80;55.80;;;;;;5212393;55;21661;-46
2022/10/30 19:06:50;;;;;;;59.30;44.33;;;22.80;55.90;;;;;;4809011;55;21062;-46
2022/10/30 19:11:50;;;;;;;60.80;45.30;;;22.80;55.80;;;;;;4745150;59;20994;-41
2022/10/30 19:16:51;;;;;;;57.62;44.58;;;22.80;55.90;;;;;;4792630;55;21050;-42
2022/10/30 19:21:52;;;;;;;62.83;46.67;;;22.80;55.80;;;;;;4774933;55;21046;-47
2022/10/30 19:26:53;;;;;;;61.45;46.37;;;22.80;55.80;;;;;;4745106;59;21065;-40
2022/10/30 19:31:54;;;;;;;62.83;46.13;;;22.80;55.80;;;;;;4745174;59;21524;-43
2022/10/30 19:36:55;;;;;;;59.38;46.30;;;22.80;55.80;;;;;;4868849;55;21085;-48
2022/10/30 19:41:56;;;;;;;64.10;46.53;;;22.80;55.90;;;;;;4769165;55;21538;-45
2022/10/30 19:46:56;;;;;;;58.17;44.90;;;22.80;55.80;;;;;;4834558;55;21061;-47
2022/10/30 19:51:57;;;;;;;62.20;46.37;;;22.80;55.90;;;;;;5040733;55;21058;-34
2022/10/30 19:56:58;;;;;;;67.55;49.20;;;22.80;55.80;;;;;;4773788;55;21010;-41
2022/10/30 20:01:59;;;;;;;62.97;48.05;;;22.80;55.90;;;;;;4844481;55;21113;-41
2022/10/30 20:06:59;;;;;;;66.57;48.47;;;22.80;55.90;;;;;;4946238;55;21495;-45
2022/10/30 20:12:00;;;;;;;63.28;48.03;;;22.80;55.80;;;;;;4745431;59;21476;-35
2022/10/30 20:17:01;;;;;;;64.53;48.97;;;22.70;55.80;;;;;;4756330;55;21502;-31
2022/10/30 20:22:02;;;;;;;68.32;49.53;;;22.70;55.80;;;;;;4955487;55;21053;-40
2022/10/30 20:27:03;;;;;;;64.40;50.65;;;22.70;55.90;;;;;;4745373;59;21013;-44
2022/10/30 20:32:07;;;;;;;65.00;50.67;;;22.70;55.80;;;;;;4781129;55;21005;-40
2022/10/30 20:37:09;;;;;;;66.32;50.60;;;22.70;55.80;;;;;;4782199;55;20986;-42
2022/10/30 20:42:12;;;;;;;67.00;49.38;;;22.70;55.80;;;;;;4745435;59;21026;-37
2022/10/30 20:47:13;;;;;;;67.03;49.00;;;22.70;55.80;;;;;;4745480;59;20990;-46
2022/10/30 20:52:14;;;;;;;66.07;50.25;;;22.70;55.80;;;;;;5032245;55;21010;-36
2022/10/30 20:57:14;;;;;;;69.32;51.10;;;22.70;55.80;;;;;;4908673;55;21009;-42
2022/10/30 21:02:15;;;;;;;68.97;52.03;;;22.70;55.80;;;;;;4745258;59;21476;-45
2022/10/30 21:07:16;;;;;;;66.03;50.25;;;22.70;55.80;;;;;;5108749;55;21006;-47
2022/10/30 21:12:18;;;;;;;68.20;50.08;;;22.70;55.70;;;;;;4832755;55;21030;-39
2022/10/30 21:17:19;;;;;;;65.20;49.78;;;22.70;55.90;;;;;;4745650;59;21053;-31
2022/10/30 21:22:20;;;;;;;63.03;49.40;;;22.70;55.80;;;;;;4745485;55;21623;-43
2022/10/30 21:27:21;;;;;;;65.45;49.95;;;22.70;55.80;;;;;;5231311;55;21037;-46
2022/10/30 21:32:22;;;;;;;67.95;51.28;;;22.70;55.80;;;;;;4791669;55;21125;-43
2022/10/30 21:37:23;;;;;;;64.43;49.95;;;22.70;55.80;;;;;;5104333;55;21021;-48
2022/10/30 21:42:23;;;;;;;70.85;51.60;;;22.80;55.80;;;;;;4789485;55;21078;-36
2022/10/30 21:47:24;;;;;;;63.15;48.25;;;22.70;55.80;;;;;;4820593;55;21049;-39
2022/10/30 21:52:25;;;;;;;69.57;51.05;;;22.80;55.90;;;;;;4851562;55;21507;-39
2022/10/30 21:57:28;;;;;;;65.95;49.85;;;22.70;55.30;;;;;;4769423;55;21963;-34
2022/10/30 22:02:28;;;;;;;66.82;49.72;;;22.70;55.70;;;;;;4813576;55;21025;-38
2022/10/30 22:07:29;;;;;;;64.12;48.83;;;22.70;55.80;;;;;;4796287;55;21039;-35
2022/10/30 22:12:30;;;;;;;61.92;49.05;;;22.70;55.70;;;;;;4745448;59;21543;-37
2022/10/30 22:17:31;;;;;;;65.72;51.47;;;22.70;55.60;;;;;;4890620;55;21093;-43
2022/10/30 22:22:31;;;;;;;64.78;49.17;;;22.70;55.70;;;;;;4791587;55;21165;-43
2022/10/30 22:27:32;;;;;;;62.40;48.33;;;22.70;55.70;;;;;;4767176;55;21057;-44
2022/10/30 22:32:33;;;;;;;64.05;48.42;;;22.70;55.80;;;;;;4745431;59;21006;-34
2022/10/30 22:37:34;;;;;;;67.60;49.30;;;22.70;55.70;;;;;;4745541;59;21015;-35
2022/10/30 22:42:35;;;;;;;64.80;48.50;;;22.70;55.70;;;;;;4778938;55;21017;-44
2022/10/30 22:47:35;;;;;;;63.58;48.45;;;22.70;55.70;;;;;;5230848;55;21488;-44
2022/10/30 22:52:36;;;;;;;64.55;49.53;;;22.70;55.80;;;;;;4840745;55;21082;-40
2022/10/30 22:57:37;;;;;;;66.72;49.45;;;22.70;55.60;;;;;;4883798;55;20987;-32
2022/10/30 23:02:38;;;;;;;62.83;47.70;;;22.70;55.80;;;;;;5056785;55;21046;-33
2022/10/30 23:07:38;;;;;;;64.90;48.22;;;22.80;56.80;;;;;;5010290;55;20994;-38
2022/10/30 23:12:39;;;;;;;63.40;46.70;;;22.70;57.30;;;;;;4745105;59;21520;-43
2022/10/30 23:17:40;;;;;;;60.78;46.42;;;22.70;57.40;;;;;;4857189;55;21765;-35
2022/10/30 23:22:41;;;;;;;61.95;46.95;;;22.70;57.40;;;;;;4761595;55;21126;-47
2022/10/30 23:27:42;;;;;;;59.90;46.85;;;22.80;57.40;;;;;;4840247;55;21066;-41
2022/10/30 23:32:46;;;;;;;62.22;45.85;;;22.70;57.40;;;;;;4745349;59;20986;-33
2022/10/30 23:37:47;;;;;;;58.05;45.17;;;22.70;57.40;;;;;;4881185;55;21041;-46
2022/10/30 23:42:51;;;;;;;61.40;46.10;;;22.70;57.30;;;;;;4745171;59;21077;-41
2022/10/30 23:47:52;;;;;;;60.28;45.35;;;22.80;57.40;;;;;;5018662;55;21002;-42
2022/10/30 23:52:52;;;;;;;55.60;42.28;;;22.70;57.30;;;;;;4930282;55;21066;-32
2022/10/30 23:57:53;;;;;;;58.05;43.03;;;22.70;57.30;;;;;;4745363;59;21468;-34
